createdAt,value
2022-11-13T00:01:28.298Z,64.20
2022-11-13T00:04:13.698Z,64.30
2022-11-13T00:06:59.782Z,64.30
2022-11-13T00:09:45.712Z,64.10
2022-11-13T00:12:31.181Z,64.60
2022-11-13T00:15:16.908Z,64.90
2022-11-13T00:18:03.191Z,64.80
2022-11-13T00:20:48.642Z,64.50
2022-11-13T00:23:35.537Z,65.00
2022-11-13T00:26:24.701Z,64.40
2022-11-13T00:29:11.082Z,64.60
2022-11-13T00:31:56.625Z,64.60
2022-11-13T00:34:47.560Z,64.80
2022-11-13T00:37:33.888Z,64.80
2022-11-13T00:40:19.355Z,65.20
2022-11-13T00:43:04.987Z,65.00
2022-11-13T00:45:50.825Z,64.90
2022-11-13T00:48:36.789Z,65.20
2022-11-13T00:51:23.013Z,64.90
2022-11-13T00:54:08.208Z,64.90
2022-11-13T00:56:53.627Z,65.10
2022-11-13T00:59:39.103Z,64.70
2022-11-13T01:02:24.496Z,65.10
2022-11-13T01:05:09.972Z,65.40
2022-11-13T01:07:55.551Z,65.40
2022-11-13T01:10:53.341Z,64.70
2022-11-13T01:13:40.854Z,64.50
2022-11-13T01:16:27.914Z,64.30
2022-11-13T01:19:13.131Z,64.90
2022-11-13T01:21:58.666Z,64.70
2022-11-13T01:24:44.170Z,64.50
2022-11-13T01:27:29.701Z,64.70
2022-11-13T01:30:15.452Z,64.60
2022-11-13T01:33:00.883Z,64.60
2022-11-13T01:35:46.464Z,64.70
2022-11-13T01:38:36.189Z,64.80
2022-11-13T01:41:25.950Z,65.00
2022-11-13T01:44:17.163Z,64.90
2022-11-13T01:47:04.302Z,65.10
2022-11-13T01:49:54.350Z,64.70
2022-11-13T01:52:41.514Z,64.60
2022-11-13T01:55:27.220Z,64.60
2022-11-13T01:58:13.861Z,64.50
2022-11-13T02:00:59.274Z,64.70
2022-11-13T02:03:44.436Z,64.40
2022-11-13T02:06:36.801Z,64.60
2022-11-13T02:09:26.370Z,64.50
2022-11-13T02:12:14.940Z,64.40
2022-11-13T02:15:02.906Z,64.70
2022-11-13T02:17:57.362Z,64.30
2022-11-13T02:21:01.959Z,64.10
2022-11-13T02:23:57.061Z,64.20
2022-11-13T02:26:43.628Z,64.20
2022-11-13T02:29:28.946Z,64.10
2022-11-13T02:32:14.236Z,63.90
2022-11-13T02:34:59.602Z,64.00
2022-11-13T02:37:45.081Z,63.90
2022-11-13T02:40:32.204Z,63.90
2022-11-13T02:43:17.420Z,64.00
2022-11-13T02:46:02.799Z,64.30
2022-11-13T02:48:48.460Z,64.20
2022-11-13T02:51:33.638Z,64.30
2022-11-13T02:54:19.119Z,64.60
2022-11-13T02:57:04.620Z,64.30
2022-11-13T02:59:50.132Z,64.00
2022-11-13T03:02:35.510Z,64.20
2022-11-13T03:05:20.957Z,64.20
2022-11-13T03:08:06.922Z,63.80
2022-11-13T03:10:53.430Z,63.80
2022-11-13T03:13:39.116Z,64.50
2022-11-13T03:16:24.501Z,63.30
2022-11-13T03:19:10.028Z,63.60
2022-11-13T03:21:55.638Z,64.10
2022-11-13T03:24:41.237Z,64.20
2022-11-13T03:27:26.765Z,64.40
2022-11-13T03:30:12.448Z,64.50
2022-11-13T03:32:58.085Z,64.50
2022-11-13T03:35:46.893Z,64.50
2022-11-13T03:38:33.311Z,64.70
2022-11-13T03:41:18.914Z,64.50
2022-11-13T03:44:04.370Z,64.50
2022-11-13T03:46:49.490Z,64.30
2022-11-13T03:49:34.987Z,64.50
2022-11-13T03:52:20.341Z,65.10
2022-11-13T03:55:06.214Z,64.30
2022-11-13T03:57:51.843Z,63.70
2022-11-13T04:00:40.319Z,64.00
2022-11-13T04:03:25.764Z,63.80
2022-11-13T04:06:11.363Z,63.80
2022-11-13T04:08:57.561Z,64.00
2022-11-13T04:11:42.844Z,63.90
2022-11-13T04:14:28.293Z,63.70
2022-11-13T04:17:13.745Z,63.50
2022-11-13T04:19:59.280Z,64.10
2022-11-13T04:22:44.723Z,63.90
2022-11-13T04:25:30.361Z,63.70
2022-11-13T04:28:15.648Z,63.40
2022-11-13T04:31:01.142Z,63.80
2022-11-13T04:33:46.354Z,63.70
2022-11-13T04:36:31.907Z,63.90
2022-11-13T04:39:17.468Z,63.50
2022-11-13T04:42:21.191Z,63.60
2022-11-13T04:45:07.125Z,63.70
2022-11-13T04:47:52.655Z,63.40
2022-11-13T04:50:38.175Z,63.50
2022-11-13T04:53:23.761Z,63.60
2022-11-13T04:56:09.224Z,63.50
2022-11-13T04:58:54.670Z,63.60
2022-11-13T05:01:40.322Z,63.20
2022-11-13T05:04:25.759Z,63.40
2022-11-13T05:07:12.046Z,63.40
2022-11-13T05:09:57.617Z,64.00
2022-11-13T05:12:43.030Z,63.60
2022-11-13T05:15:28.465Z,63.80
2022-11-13T05:18:14.357Z,63.40
2022-11-13T05:21:00.285Z,63.60
2022-11-13T05:23:45.619Z,63.40
2022-11-13T05:26:31.863Z,63.60
2022-11-13T05:29:17.257Z,63.70
2022-11-13T05:32:02.462Z,63.80
2022-11-13T05:34:48.027Z,64.10
2022-11-13T05:37:33.467Z,64.00
2022-11-13T05:40:19.022Z,63.80
2022-11-13T05:43:04.559Z,63.90
2022-11-13T05:45:49.830Z,63.90
2022-11-13T05:48:35.759Z,64.00
2022-11-13T05:51:23.744Z,63.60
2022-11-13T05:54:09.067Z,64.10
2022-11-13T05:56:54.764Z,63.80
2022-11-13T05:59:40.117Z,63.80
2022-11-13T06:02:25.457Z,63.60
2022-11-13T06:05:11.307Z,63.90
2022-11-13T06:07:56.766Z,63.90
2022-11-13T06:10:42.361Z,65.20
2022-11-13T06:13:28.207Z,64.40
2022-11-13T06:16:22.489Z,64.90
2022-11-13T06:19:09.921Z,64.50
2022-11-13T06:21:55.507Z,64.70
2022-11-13T06:24:40.970Z,65.30
2022-11-13T06:27:28.111Z,64.90
2022-11-13T06:30:14.104Z,64.80
2022-11-13T06:32:59.557Z,64.60
2022-11-13T06:35:45.237Z,65.90
2022-11-13T06:38:35.639Z,65.60
2022-11-13T06:41:24.362Z,64.40
2022-11-13T06:44:10.191Z,63.80
2022-11-13T06:46:55.870Z,64.10
2022-11-13T06:49:41.229Z,63.60
2022-11-13T06:52:26.621Z,64.40
2022-11-13T06:55:12.435Z,63.70
2022-11-13T06:57:57.814Z,63.70
2022-11-13T07:00:43.895Z,63.20
2022-11-13T07:03:29.306Z,63.60
2022-11-13T07:06:20.774Z,63.30
2022-11-13T07:09:06.574Z,62.50
2022-11-13T07:11:51.909Z,62.80
2022-11-13T07:14:37.326Z,62.90
2022-11-13T07:17:22.961Z,63.00
2022-11-13T07:20:08.579Z,62.80
2022-11-13T07:22:58.573Z,63.20
2022-11-13T07:25:43.883Z,62.90
2022-11-13T07:28:29.773Z,62.60
2022-11-13T07:31:17.311Z,62.30
2022-11-13T07:34:02.948Z,62.90
2022-11-13T07:36:48.128Z,63.50
2022-11-13T07:39:33.606Z,62.80
2022-11-13T07:42:19.023Z,63.40
2022-11-13T07:45:05.908Z,63.30
2022-11-13T07:47:51.517Z,63.60
2022-11-13T07:50:38.658Z,64.00
2022-11-13T07:53:23.842Z,64.00
2022-11-13T07:56:09.429Z,63.50
2022-11-13T07:58:54.754Z,63.80
2022-11-13T08:01:40.658Z,64.00
2022-11-13T08:04:26.043Z,64.80
2022-11-13T08:07:12.872Z,64.20
2022-11-13T08:09:58.578Z,64.40
2022-11-13T08:12:44.902Z,61.20
2022-11-13T08:15:31.438Z,59.50
2022-11-13T08:18:17.232Z,59.70
2022-11-13T08:21:04.564Z,59.80
2022-11-13T08:23:52.982Z,61.10
2022-11-13T08:26:39.921Z,62.70
2022-11-13T08:29:25.600Z,64.30
2022-11-13T08:32:13.884Z,63.40
2022-11-13T08:34:59.334Z,63.30
2022-11-13T08:37:44.740Z,63.20
2022-11-13T08:40:30.445Z,63.40
2022-11-13T08:43:16.235Z,62.90
2022-11-13T08:46:01.755Z,62.80
2022-11-13T08:48:47.119Z,62.50
2022-11-13T08:51:32.830Z,64.30
2022-11-13T08:54:21.119Z,65.10
2022-11-13T08:57:06.377Z,60.70
2022-11-13T08:59:51.873Z,61.10
2022-11-13T09:02:37.224Z,61.30
2022-11-13T09:05:23.594Z,61.70
2022-11-13T09:08:10.682Z,61.80
2022-11-13T09:10:56.307Z,61.50
2022-11-13T09:13:45.145Z,61.80
2022-11-13T09:16:32.977Z,61.50
2022-11-13T09:19:18.387Z,62.00
2022-11-13T09:22:03.811Z,62.30
2022-11-13T09:24:49.628Z,62.10
2022-11-13T09:27:34.930Z,62.50
2022-11-13T09:30:20.532Z,62.60
2022-11-13T09:33:06.686Z,62.40
2022-11-13T09:35:52.754Z,62.40
2022-11-13T09:38:38.886Z,62.10
2022-11-13T09:41:29.690Z,61.80
2022-11-13T09:44:29.461Z,62.00
2022-11-13T09:47:29.975Z,62.00
2022-11-13T09:50:22.078Z,62.30
2022-11-13T09:53:10.048Z,61.90
2022-11-13T09:56:18.704Z,62.30
2022-11-13T09:59:23.645Z,61.50
2022-11-13T10:02:20.839Z,62.30
2022-11-13T10:05:13.694Z,62.80
2022-11-13T10:08:17.853Z,62.40
2022-11-13T10:11:22.758Z,61.70
2022-11-13T10:14:29.255Z,61.40
2022-11-13T10:17:33.004Z,61.00
2022-11-13T10:20:54.218Z,61.90
2022-11-13T10:23:39.580Z,62.20
2022-11-13T10:26:28.737Z,61.60
2022-11-13T10:29:17.691Z,60.40
2022-11-13T10:32:18.370Z,60.20
2022-11-13T10:35:06.661Z,60.40
2022-11-13T10:38:25.584Z,61.00
2022-11-13T10:41:16.494Z,60.50
2022-11-13T10:44:07.054Z,58.80
2022-11-13T10:47:03.966Z,57.20
2022-11-13T10:49:51.715Z,56.90
2022-11-13T10:52:46.708Z,56.40
2022-11-13T10:55:40.266Z,56.60
2022-11-13T10:58:26.027Z,57.10
2022-11-13T11:01:23.997Z,57.60
2022-11-13T11:04:29.728Z,57.80
2022-11-13T11:07:21.796Z,58.10
2022-11-13T11:10:31.083Z,58.30
2022-11-13T11:13:22.918Z,58.80
2022-11-13T11:16:11.770Z,59.10
2022-11-13T11:19:04.726Z,58.80
2022-11-13T11:21:53.798Z,58.70
2022-11-13T11:24:46.190Z,58.50
2022-11-13T11:27:45.943Z,58.30
2022-11-13T11:30:49.692Z,58.40
2022-11-13T11:33:52.613Z,58.70
2022-11-13T11:37:17.042Z,57.90
2022-11-13T11:40:15.316Z,58.00
2022-11-13T11:43:37.445Z,57.70
2022-11-13T11:46:24.496Z,57.30
2022-11-13T11:49:10.978Z,57.50
2022-11-13T11:52:05.309Z,57.40
2022-11-13T11:55:18.910Z,57.10
2022-11-13T11:58:10.290Z,57.10
2022-11-13T12:01:04.969Z,56.70
2022-11-13T12:03:56.273Z,57.60
2022-11-13T12:06:42.082Z,57.30
2022-11-13T12:10:02.341Z,56.20
2022-11-13T12:13:06.580Z,56.60
2022-11-13T12:16:01.205Z,56.30
2022-11-13T12:18:46.456Z,56.30
2022-11-13T12:22:04.535Z,56.00
2022-11-13T12:24:55.347Z,55.80
2022-11-13T12:28:02.269Z,55.90
2022-11-13T12:31:39.026Z,55.70
2022-11-13T12:34:28.768Z,55.80
2022-11-13T12:37:37.340Z,55.70
2022-11-13T12:40:33.318Z,55.60
2022-11-13T12:43:49.644Z,56.00
2022-11-13T12:46:42.237Z,55.10
2022-11-13T12:49:35.837Z,54.50
2022-11-13T12:52:24.374Z,54.40
2022-11-13T12:55:40.625Z,54.90
2022-11-13T12:58:29.099Z,54.90
2022-11-13T13:01:18.695Z,54.80
2022-11-13T13:04:36.324Z,54.70
2022-11-13T13:08:03.608Z,54.60
2022-11-13T13:11:13.589Z,54.20
2022-11-13T13:14:33.492Z,53.90
2022-11-13T13:17:22.029Z,54.00
2022-11-13T13:20:16.035Z,54.40
2022-11-13T13:23:06.010Z,54.10
2022-11-13T13:26:05.191Z,53.90
2022-11-13T13:28:56.219Z,54.10
2022-11-13T13:31:52.972Z,54.40
2022-11-13T13:35:14.810Z,54.70
2022-11-13T13:38:23.873Z,54.70
2022-11-13T13:41:17.929Z,54.40
2022-11-13T13:44:22.087Z,56.00
2022-11-13T13:47:19.421Z,55.50
2022-11-13T13:50:07.929Z,57.80
2022-11-13T13:52:56.116Z,56.00
2022-11-13T13:55:48.228Z,56.20
2022-11-13T13:58:36.772Z,56.10
2022-11-13T14:01:30.987Z,56.60
2022-11-13T14:04:22.273Z,56.40
2022-11-13T14:07:39.458Z,55.70
2022-11-13T14:10:28.134Z,57.00
2022-11-13T14:13:14.637Z,55.70
2022-11-13T14:16:07.184Z,56.10
2022-11-13T14:19:03.905Z,56.90
2022-11-13T14:21:52.108Z,57.40
2022-11-13T14:24:51.878Z,57.90
2022-11-13T14:27:37.967Z,58.60
2022-11-13T14:30:28.126Z,58.20
2022-11-13T14:33:21.936Z,57.50
2022-11-13T14:36:07.903Z,57.40
2022-11-13T14:38:53.469Z,57.40
2022-11-13T14:41:50.337Z,57.60
2022-11-13T14:44:35.917Z,57.80
2022-11-13T14:47:37.315Z,57.50
2022-11-13T14:50:36.540Z,57.80
2022-11-13T14:53:34.110Z,57.90
2022-11-13T14:56:19.466Z,57.70
2022-11-13T14:59:19.587Z,57.70
2022-11-13T15:02:06.911Z,57.80
2022-11-13T15:04:52.297Z,57.70
2022-11-13T15:07:42.083Z,58.00
2022-11-13T15:10:30.022Z,58.10
2022-11-13T15:13:16.992Z,57.80
2022-11-13T15:16:02.308Z,58.00
2022-11-13T15:18:54.617Z,57.90
2022-11-13T15:21:40.785Z,57.60
2022-11-13T15:24:26.409Z,57.70
2022-11-13T15:27:16.907Z,57.60
2022-11-13T15:30:02.227Z,57.90
2022-11-13T15:32:53.204Z,57.60
2022-11-13T15:35:38.626Z,58.20
2022-11-13T15:38:24.261Z,58.30
2022-11-13T15:41:15.146Z,58.50
2022-11-13T15:44:02.367Z,58.70
2022-11-13T15:46:47.941Z,58.60
2022-11-13T15:49:33.465Z,58.30
2022-11-13T15:52:19.595Z,58.90
2022-11-13T15:55:13.372Z,58.90
2022-11-13T15:57:59.724Z,58.40
2022-11-13T16:00:46.073Z,58.40
2022-11-13T16:03:34.448Z,58.70
2022-11-13T16:06:23.946Z,58.70
2022-11-13T16:09:15.388Z,58.70
2022-11-13T16:12:01.599Z,58.80
2022-11-13T16:14:47.352Z,58.80
2022-11-13T16:17:39.426Z,58.80
2022-11-13T16:20:24.649Z,59.40
2022-11-13T16:23:15.850Z,59.20
2022-11-13T16:26:04.520Z,59.10
2022-11-13T16:29:12.684Z,58.40
2022-11-13T16:31:58.134Z,58.60
2022-11-13T16:34:44.322Z,58.80
2022-11-13T16:37:29.960Z,58.90
2022-11-13T16:40:21.177Z,59.10
2022-11-13T16:43:06.542Z,59.20
2022-11-13T16:45:52.925Z,59.50
2022-11-13T16:48:38.611Z,59.70
2022-11-13T16:51:24.283Z,59.30
2022-11-13T16:54:09.397Z,59.50
2022-11-13T16:56:54.858Z,59.60
2022-11-13T16:59:40.875Z,59.90
2022-11-13T17:02:26.271Z,60.10
2022-11-13T17:05:16.045Z,60.00
2022-11-13T17:08:01.870Z,60.40
2022-11-13T17:10:55.618Z,60.40
2022-11-13T17:13:40.875Z,61.20
2022-11-13T17:16:28.439Z,60.90
2022-11-13T17:19:14.474Z,60.70
2022-11-13T17:22:00.032Z,60.90
2022-11-13T17:24:45.704Z,61.50
2022-11-13T17:27:31.295Z,61.50
2022-11-13T17:30:17.131Z,61.70
2022-11-13T17:33:02.702Z,61.40
2022-11-13T17:35:54.352Z,61.80
2022-11-13T17:38:40.104Z,61.50
2022-11-13T17:41:25.464Z,62.10
2022-11-13T17:44:10.742Z,62.00
2022-11-13T17:46:56.117Z,62.10
2022-11-13T17:49:41.477Z,62.70
2022-11-13T17:52:27.281Z,62.90
2022-11-13T17:55:14.225Z,63.20
2022-11-13T17:58:00.863Z,63.70
2022-11-13T18:00:46.400Z,63.90
2022-11-13T18:03:32.054Z,64.20
2022-11-13T18:06:19.999Z,64.50
2022-11-13T18:09:09.320Z,64.90
2022-11-13T18:11:54.705Z,65.50
2022-11-13T18:14:40.220Z,64.80
2022-11-13T18:17:26.009Z,64.90
2022-11-13T18:20:15.119Z,64.80
2022-11-13T18:23:01.193Z,64.90
2022-11-13T18:25:47.012Z,65.10
2022-11-13T18:28:32.317Z,65.20
2022-11-13T18:31:20.150Z,65.40
2022-11-13T18:34:07.476Z,65.30
2022-11-13T18:36:53.515Z,65.50
2022-11-13T18:39:38.925Z,65.20
2022-11-13T18:42:24.742Z,65.10
2022-11-13T18:45:11.949Z,65.40
2022-11-13T18:47:57.614Z,65.10
2022-11-13T18:50:43.298Z,65.50
2022-11-13T18:53:29.899Z,65.50
2022-11-13T18:56:27.136Z,65.90
2022-11-13T18:59:12.448Z,65.80
2022-11-13T19:01:57.874Z,65.70
2022-11-13T19:04:43.295Z,66.10
2022-11-13T19:07:28.722Z,66.10
2022-11-13T19:10:16.321Z,65.40
2022-11-13T19:13:01.570Z,65.80
2022-11-13T19:15:50.111Z,65.90
2022-11-13T19:18:37.449Z,66.20
2022-11-13T19:21:24.960Z,66.80
2022-11-13T19:24:11.843Z,67.70
2022-11-13T19:26:57.658Z,67.10
2022-11-13T19:29:42.939Z,66.60
2022-11-13T19:32:29.720Z,66.00
2022-11-13T19:35:15.180Z,64.80
2022-11-13T19:38:01.862Z,63.70
2022-11-13T19:40:50.115Z,63.50
2022-11-13T19:43:37.599Z,63.20
2022-11-13T19:46:22.854Z,62.60
2022-11-13T19:49:08.457Z,62.40
2022-11-13T19:51:54.868Z,62.40
2022-11-13T19:54:42.093Z,61.80
2022-11-13T19:57:27.270Z,62.20
2022-11-13T20:00:17.208Z,62.20
2022-11-13T20:03:07.309Z,61.90
2022-11-13T20:06:00.127Z,62.00
2022-11-13T20:08:45.488Z,62.40
2022-11-13T20:11:32.308Z,63.00
2022-11-13T20:14:17.943Z,62.10
2022-11-13T20:17:03.610Z,62.10
2022-11-13T20:19:49.294Z,61.80
2022-11-13T20:22:35.518Z,61.80
2022-11-13T20:25:21.282Z,63.90
2022-11-13T20:28:06.355Z,61.10
2022-11-13T20:30:52.103Z,61.20
2022-11-13T20:33:37.454Z,61.80
2022-11-13T20:36:23.603Z,60.90
2022-11-13T20:39:09.592Z,61.10
2022-11-13T20:41:55.410Z,61.10
2022-11-13T20:44:41.170Z,61.00
2022-11-13T20:47:27.827Z,61.20
2022-11-13T20:50:13.167Z,60.90
2022-11-13T20:52:58.614Z,60.50
2022-11-13T20:55:44.018Z,61.30
2022-11-13T20:58:31.308Z,61.50
2022-11-13T21:01:20.612Z,61.40
2022-11-13T21:04:06.205Z,61.60
2022-11-13T21:06:52.462Z,61.40
2022-11-13T21:09:38.371Z,60.70
2022-11-13T21:12:23.717Z,60.70
2022-11-13T21:15:09.572Z,61.50
2022-11-13T21:17:55.318Z,62.00
2022-11-13T21:20:42.562Z,62.30
2022-11-13T21:23:29.844Z,62.90
2022-11-13T21:26:15.930Z,63.30
2022-11-13T21:29:01.435Z,63.30
2022-11-13T21:31:47.989Z,63.70
2022-11-13T21:34:33.561Z,62.80
2022-11-13T21:37:18.993Z,62.20
2022-11-13T21:40:05.654Z,60.70
2022-11-13T21:42:50.906Z,60.20
2022-11-13T21:45:36.556Z,59.70
2022-11-13T21:48:22.248Z,59.80
2022-11-13T21:51:08.418Z,62.00
2022-11-13T21:53:53.759Z,63.10
2022-11-13T21:56:39.654Z,65.40
2022-11-13T21:59:25.244Z,65.70
2022-11-13T22:02:11.435Z,65.50
2022-11-13T22:04:56.711Z,65.10
2022-11-13T22:07:43.148Z,64.10
2022-11-13T22:10:28.532Z,63.90
2022-11-13T22:13:16.704Z,63.20
2022-11-13T22:16:06.917Z,63.20
2022-11-13T22:18:56.901Z,62.90
2022-11-13T22:21:42.982Z,63.30
2022-11-13T22:24:29.590Z,62.80
2022-11-13T22:27:14.829Z,62.80
2022-11-13T22:30:00.244Z,63.10
2022-11-13T22:32:54.483Z,63.00
2022-11-13T22:35:41.416Z,62.70
2022-11-13T22:38:27.255Z,63.20
2022-11-13T22:41:23.513Z,63.10
2022-11-13T22:44:14.329Z,63.60
2022-11-13T22:46:59.975Z,63.00
2022-11-13T22:49:45.412Z,63.40
2022-11-13T22:52:30.855Z,62.40
2022-11-13T22:55:16.343Z,62.80
2022-11-13T22:58:01.744Z,62.70
2022-11-13T23:00:47.506Z,62.60
2022-11-13T23:03:36.425Z,62.40
2022-11-13T23:06:24.634Z,63.00
2022-11-13T23:09:10.628Z,62.80
2022-11-13T23:11:55.784Z,62.50
2022-11-13T23:14:41.299Z,63.10
2022-11-13T23:17:26.825Z,63.80
2022-11-13T23:20:12.934Z,63.40
2022-11-13T23:22:58.426Z,63.80
2022-11-13T23:25:44.091Z,63.40
2022-11-13T23:28:29.557Z,63.10
2022-11-13T23:31:15.114Z,63.40
2022-11-13T23:34:00.174Z,63.00
2022-11-13T23:36:45.736Z,62.70
2022-11-13T23:39:31.237Z,62.80
2022-11-13T23:42:33.032Z,63.00
2022-11-13T23:45:22.171Z,63.10
2022-11-13T23:48:07.644Z,62.90
2022-11-13T23:50:53.209Z,62.30
2022-11-13T23:53:38.731Z,62.30
2022-11-13T23:56:24.148Z,62.30
2022-11-13T23:59:09.663Z,63.10
